sensor_id;sensor_type;location;lat;lon;timestamp;P1;durP1;ratioP1;P2;durP2;ratioP2
3891;SDS011;1961;48.194;16.370;2022-12-26T00:02:01;68.95;;;25.98;;
3891;SDS011;1961;48.194;16.370;2022-12-26T00:04:27;69.07;;;26.70;;
3891;SDS011;1961;48.194;16.370;2022-12-26T00:06:55;67.78;;;25.42;;
3891;SDS011;1961;48.194;16.370;2022-12-26T00:09:21;69.70;;;24.67;;
3891;SDS011;1961;48.194;16.370;2022-12-26T00:11:47;68.95;;;25.92;;
3891;SDS011;1961;48.194;16.370;2022-12-26T00:14:14;66.72;;;25.40;;
3891;SDS011;1961;48.194;16.370;2022-12-26T00:16:42;66.40;;;26.20;;
3891;SDS011;1961;48.194;16.370;2022-12-26T00:19:09;66.63;;;23.95;;
3891;SDS011;1961;48.194;16.370;2022-12-26T00:21:35;68.25;;;26.52;;
3891;SDS011;1961;48.194;16.370;2022-12-26T00:24:01;65.28;;;23.38;;
3891;SDS011;1961;48.194;16.370;2022-12-26T00:26:28;69.93;;;24.58;;
3891;SDS011;1961;48.194;16.370;2022-12-26T00:28:55;65.47;;;26.02;;
3891;SDS011;1961;48.194;16.370;2022-12-26T00:31:23;63.95;;;24.00;;
3891;SDS011;1961;48.194;16.370;2022-12-26T00:33:49;69.13;;;25.55;;
3891;SDS011;1961;48.194;16.370;2022-12-26T00:36:17;69.05;;;25.65;;
3891;SDS011;1961;48.194;16.370;2022-12-26T00:38:44;66.75;;;25.15;;
3891;SDS011;1961;48.194;16.370;2022-12-26T00:41:12;68.50;;;26.05;;
3891;SDS011;1961;48.194;16.370;2022-12-26T00:43:39;70.15;;;25.98;;
3891;SDS011;1961;48.194;16.370;2022-12-26T00:46:06;68.88;;;25.42;;
3891;SDS011;1961;48.194;16.370;2022-12-26T00:48:32;68.88;;;26.10;;
3891;SDS011;1961;48.194;16.370;2022-12-26T00:50:58;69.00;;;25.17;;
3891;SDS011;1961;48.194;16.370;2022-12-26T00:53:25;68.25;;;24.40;;
3891;SDS011;1961;48.194;16.370;2022-12-26T00:55:51;70.30;;;26.52;;
3891;SDS011;1961;48.194;16.370;2022-12-26T00:58:19;69.15;;;26.90;;
3891;SDS011;1961;48.194;16.370;2022-12-26T01:00:45;72.38;;;26.13;;
3891;SDS011;1961;48.194;16.370;2022-12-26T01:03:12;68.18;;;26.58;;
3891;SDS011;1961;48.194;16.370;2022-12-26T01:05:42;69.80;;;26.42;;
3891;SDS011;1961;48.194;16.370;2022-12-26T01:08:09;69.07;;;26.67;;
3891;SDS011;1961;48.194;16.370;2022-12-26T01:10:36;68.30;;;26.45;;
3891;SDS011;1961;48.194;16.370;2022-12-26T01:13:02;73.88;;;29.80;;
3891;SDS011;1961;48.194;16.370;2022-12-26T01:15:28;73.28;;;29.40;;
3891;SDS011;1961;48.194;16.370;2022-12-26T01:17:54;71.93;;;27.55;;
3891;SDS011;1961;48.194;16.370;2022-12-26T01:20:20;71.32;;;25.85;;
3891;SDS011;1961;48.194;16.370;2022-12-26T01:22:47;76.43;;;31.42;;
3891;SDS011;1961;48.194;16.370;2022-12-26T01:25:13;71.40;;;29.27;;
3891;SDS011;1961;48.194;16.370;2022-12-26T01:27:39;79.47;;;33.10;;
3891;SDS011;1961;48.194;16.370;2022-12-26T01:30:06;77.32;;;30.23;;
3891;SDS011;1961;48.194;16.370;2022-12-26T01:32:32;87.25;;;31.80;;
3891;SDS011;1961;48.194;16.370;2022-12-26T01:34:58;86.68;;;33.15;;
3891;SDS011;1961;48.194;16.370;2022-12-26T01:37:24;84.65;;;32.75;;
3891;SDS011;1961;48.194;16.370;2022-12-26T01:39:52;85.15;;;33.17;;
3891;SDS011;1961;48.194;16.370;2022-12-26T01:42:22;82.60;;;32.22;;
3891;SDS011;1961;48.194;16.370;2022-12-26T01:45:05;86.65;;;33.85;;
3891;SDS011;1961;48.194;16.370;2022-12-26T01:50:00;94.18;;;32.13;;
3891;SDS011;1961;48.194;16.370;2022-12-26T01:52:32;83.80;;;30.20;;
3891;SDS011;1961;48.194;16.370;2022-12-26T01:55:00;87.68;;;33.17;;
3891;SDS011;1961;48.194;16.370;2022-12-26T01:57:27;84.07;;;30.92;;
3891;SDS011;1961;48.194;16.370;2022-12-26T01:59:56;80.47;;;28.85;;
3891;SDS011;1961;48.194;16.370;2022-12-26T02:02:24;85.68;;;29.23;;
3891;SDS011;1961;48.194;16.370;2022-12-26T02:04:52;80.63;;;28.45;;
3891;SDS011;1961;48.194;16.370;2022-12-26T02:07:39;79.10;;;26.25;;
3891;SDS011;1961;48.194;16.370;2022-12-26T02:10:12;75.80;;;28.13;;
3891;SDS011;1961;48.194;16.370;2022-12-26T02:12:39;77.28;;;26.83;;
3891;SDS011;1961;48.194;16.370;2022-12-26T02:15:07;77.63;;;28.05;;
3891;SDS011;1961;48.194;16.370;2022-12-26T02:17:35;85.28;;;28.58;;
3891;SDS011;1961;48.194;16.370;2022-12-26T02:20:06;83.57;;;29.30;;
3891;SDS011;1961;48.194;16.370;2022-12-26T02:40:31;76.95;;;27.33;;
3891;SDS011;1961;48.194;16.370;2022-12-26T02:43:04;80.97;;;28.67;;
3891;SDS011;1961;48.194;16.370;2022-12-26T02:45:42;87.60;;;27.83;;
3891;SDS011;1961;48.194;16.370;2022-12-26T02:48:45;81.07;;;27.70;;
3891;SDS011;1961;48.194;16.370;2022-12-26T02:54:14;75.63;;;27.60;;
3891;SDS011;1961;48.194;16.370;2022-12-26T02:57:19;74.13;;;27.75;;
3891;SDS011;1961;48.194;16.370;2022-12-26T03:00:06;87.45;;;30.75;;
3891;SDS011;1961;48.194;16.370;2022-12-26T03:02:56;78.57;;;28.50;;
3891;SDS011;1961;48.194;16.370;2022-12-26T03:05:44;83.43;;;28.38;;
3891;SDS011;1961;48.194;16.370;2022-12-26T03:08:31;85.70;;;30.40;;
3891;SDS011;1961;48.194;16.370;2022-12-26T03:11:17;81.97;;;29.95;;
3891;SDS011;1961;48.194;16.370;2022-12-26T03:14:04;85.20;;;29.27;;
3891;SDS011;1961;48.194;16.370;2022-12-26T03:16:31;82.95;;;30.60;;
3891;SDS011;1961;48.194;16.370;2022-12-26T03:19:17;84.57;;;28.75;;
3891;SDS011;1961;48.194;16.370;2022-12-26T03:21:44;81.53;;;28.83;;
3891;SDS011;1961;48.194;16.370;2022-12-26T03:24:11;81.55;;;27.95;;
3891;SDS011;1961;48.194;16.370;2022-12-26T03:26:45;85.10;;;28.45;;
3891;SDS011;1961;48.194;16.370;2022-12-26T03:29:13;84.22;;;28.38;;
3891;SDS011;1961;48.194;16.370;2022-12-26T03:31:59;74.35;;;25.83;;
3891;SDS011;1961;48.194;16.370;2022-12-26T03:34:26;78.32;;;25.98;;
3891;SDS011;1961;48.194;16.370;2022-12-26T03:42:12;84.18;;;28.38;;
3891;SDS011;1961;48.194;16.370;2022-12-26T03:44:59;83.82;;;27.35;;
3891;SDS011;1961;48.194;16.370;2022-12-26T03:50:37;84.60;;;27.67;;
3891;SDS011;1961;48.194;16.370;2022-12-26T03:53:24;77.25;;;25.75;;
3891;SDS011;1961;48.194;16.370;2022-12-26T03:59:50;95.22;;;29.63;;
3891;SDS011;1961;48.194;16.370;2022-12-26T04:02:13;81.95;;;27.30;;
3891;SDS011;1961;48.194;16.370;2022-12-26T04:04:58;80.00;;;25.98;;
3891;SDS011;1961;48.194;16.370;2022-12-26T04:07:46;79.32;;;25.88;;
3891;SDS011;1961;48.194;16.370;2022-12-26T04:10:37;80.00;;;26.20;;
3891;SDS011;1961;48.194;16.370;2022-12-26T04:13:25;90.00;;;25.45;;
3891;SDS011;1961;48.194;16.370;2022-12-26T04:16:15;86.68;;;26.27;;
3891;SDS011;1961;48.194;16.370;2022-12-26T04:24:46;78.00;;;25.88;;
3891;SDS011;1961;48.194;16.370;2022-12-26T04:27:32;77.93;;;25.17;;
3891;SDS011;1961;48.194;16.370;2022-12-26T04:30:17;77.00;;;25.00;;
3891;SDS011;1961;48.194;16.370;2022-12-26T04:33:04;73.13;;;24.73;;
3891;SDS011;1961;48.194;16.370;2022-12-26T04:35:51;75.97;;;24.98;;
3891;SDS011;1961;48.194;16.370;2022-12-26T04:38:41;81.28;;;27.13;;
3891;SDS011;1961;48.194;16.370;2022-12-26T04:41:28;83.25;;;27.15;;
3891;SDS011;1961;48.194;16.370;2022-12-26T04:44:14;77.30;;;25.23;;
3891;SDS011;1961;48.194;16.370;2022-12-26T04:46:42;94.28;;;25.88;;
3891;SDS011;1961;48.194;16.370;2022-12-26T04:49:10;87.93;;;25.95;;
3891;SDS011;1961;48.194;16.370;2022-12-26T04:51:56;97.82;;;28.17;;
3891;SDS011;1961;48.194;16.370;2022-12-26T04:54:23;90.68;;;26.92;;
3891;SDS011;1961;48.194;16.370;2022-12-26T04:56:49;89.75;;;27.98;;
3891;SDS011;1961;48.194;16.370;2022-12-26T04:59:16;97.43;;;28.52;;
3891;SDS011;1961;48.194;16.370;2022-12-26T05:01:43;79.07;;;25.88;;
3891;SDS011;1961;48.194;16.370;2022-12-26T05:04:27;91.70;;;27.67;;
3891;SDS011;1961;48.194;16.370;2022-12-26T05:07:16;89.43;;;24.23;;
3891;SDS011;1961;48.194;16.370;2022-12-26T05:10:03;93.15;;;25.90;;
3891;SDS011;1961;48.194;16.370;2022-12-26T05:12:31;80.60;;;26.58;;
3891;SDS011;1961;48.194;16.370;2022-12-26T05:14:57;85.45;;;26.58;;
3891;SDS011;1961;48.194;16.370;2022-12-26T05:17:24;95.57;;;26.23;;
3891;SDS011;1961;48.194;16.370;2022-12-26T05:20:10;91.35;;;27.00;;
3891;SDS011;1961;48.194;16.370;2022-12-26T05:22:55;90.60;;;27.63;;
3891;SDS011;1961;48.194;16.370;2022-12-26T05:25:42;77.95;;;24.80;;
3891;SDS011;1961;48.194;16.370;2022-12-26T05:28:27;90.10;;;26.30;;
3891;SDS011;1961;48.194;16.370;2022-12-26T05:31:06;78.00;;;25.77;;
3891;SDS011;1961;48.194;16.370;2022-12-26T05:33:32;87.55;;;26.85;;
3891;SDS011;1961;48.194;16.370;2022-12-26T05:36:18;87.63;;;27.67;;
3891;SDS011;1961;48.194;16.370;2022-12-26T05:38:45;97.95;;;28.98;;
3891;SDS011;1961;48.194;16.370;2022-12-26T05:41:12;83.65;;;26.00;;
3891;SDS011;1961;48.194;16.370;2022-12-26T05:43:39;89.95;;;26.50;;
3891;SDS011;1961;48.194;16.370;2022-12-26T05:46:05;84.15;;;26.88;;
3891;SDS011;1961;48.194;16.370;2022-12-26T05:48:31;89.72;;;26.67;;
3891;SDS011;1961;48.194;16.370;2022-12-26T05:50:58;84.47;;;27.60;;
3891;SDS011;1961;48.194;16.370;2022-12-26T05:53:25;87.25;;;27.08;;
3891;SDS011;1961;48.194;16.370;2022-12-26T05:55:51;85.80;;;27.85;;
3891;SDS011;1961;48.194;16.370;2022-12-26T05:58:17;81.43;;;26.15;;
3891;SDS011;1961;48.194;16.370;2022-12-26T06:00:44;96.07;;;28.52;;
3891;SDS011;1961;48.194;16.370;2022-12-26T06:03:10;97.68;;;26.83;;
3891;SDS011;1961;48.194;16.370;2022-12-26T06:05:36;84.35;;;26.08;;
3891;SDS011;1961;48.194;16.370;2022-12-26T06:08:02;76.05;;;25.02;;
3891;SDS011;1961;48.194;16.370;2022-12-26T06:10:28;78.97;;;27.00;;
3891;SDS011;1961;48.194;16.370;2022-12-26T06:12:55;77.32;;;26.30;;
3891;SDS011;1961;48.194;16.370;2022-12-26T06:15:22;80.95;;;25.02;;
3891;SDS011;1961;48.194;16.370;2022-12-26T06:17:48;83.60;;;26.05;;
3891;SDS011;1961;48.194;16.370;2022-12-26T06:20:14;75.47;;;25.42;;
3891;SDS011;1961;48.194;16.370;2022-12-26T06:22:40;83.80;;;29.08;;
3891;SDS011;1961;48.194;16.370;2022-12-26T06:25:06;88.68;;;27.23;;
3891;SDS011;1961;48.194;16.370;2022-12-26T06:27:33;83.72;;;26.58;;
3891;SDS011;1961;48.194;16.370;2022-12-26T06:29:59;103.28;;;27.50;;
3891;SDS011;1961;48.194;16.370;2022-12-26T06:32:25;83.05;;;27.02;;
3891;SDS011;1961;48.194;16.370;2022-12-26T06:34:51;69.38;;;24.95;;
3891;SDS011;1961;48.194;16.370;2022-12-26T06:37:19;81.85;;;25.80;;
3891;SDS011;1961;48.194;16.370;2022-12-26T06:39:45;79.78;;;25.10;;
3891;SDS011;1961;48.194;16.370;2022-12-26T06:42:11;77.03;;;24.90;;
3891;SDS011;1961;48.194;16.370;2022-12-26T06:44:37;72.38;;;24.33;;
3891;SDS011;1961;48.194;16.370;2022-12-26T06:47:03;83.35;;;28.73;;
3891;SDS011;1961;48.194;16.370;2022-12-26T06:49:29;77.22;;;27.30;;
3891;SDS011;1961;48.194;16.370;2022-12-26T06:51:55;82.03;;;28.35;;
3891;SDS011;1961;48.194;16.370;2022-12-26T06:54:22;77.45;;;26.20;;
3891;SDS011;1961;48.194;16.370;2022-12-26T06:56:48;78.47;;;27.42;;
3891;SDS011;1961;48.194;16.370;2022-12-26T06:59:14;75.57;;;28.10;;
3891;SDS011;1961;48.194;16.370;2022-12-26T07:01:40;75.70;;;27.85;;
3891;SDS011;1961;48.194;16.370;2022-12-26T07:04:06;72.57;;;25.27;;
3891;SDS011;1961;48.194;16.370;2022-12-26T07:06:33;77.00;;;28.92;;
3891;SDS011;1961;48.194;16.370;2022-12-26T07:09:04;78.50;;;27.15;;
3891;SDS011;1961;48.194;16.370;2022-12-26T07:11:32;71.93;;;26.50;;
3891;SDS011;1961;48.194;16.370;2022-12-26T07:13:59;75.50;;;28.27;;
3891;SDS011;1961;48.194;16.370;2022-12-26T07:16:26;76.57;;;27.25;;
3891;SDS011;1961;48.194;16.370;2022-12-26T07:18:52;76.93;;;28.00;;
3891;SDS011;1961;48.194;16.370;2022-12-26T07:21:19;78.82;;;27.13;;
3891;SDS011;1961;48.194;16.370;2022-12-26T07:23:45;79.13;;;27.45;;
3891;SDS011;1961;48.194;16.370;2022-12-26T07:26:11;71.60;;;25.13;;
3891;SDS011;1961;48.194;16.370;2022-12-26T07:28:38;79.30;;;27.70;;
3891;SDS011;1961;48.194;16.370;2022-12-26T07:31:04;80.50;;;28.85;;
3891;SDS011;1961;48.194;16.370;2022-12-26T07:33:30;80.40;;;28.60;;
3891;SDS011;1961;48.194;16.370;2022-12-26T07:36:00;73.82;;;25.83;;
3891;SDS011;1961;48.194;16.370;2022-12-26T07:38:27;79.45;;;25.88;;
3891;SDS011;1961;48.194;16.370;2022-12-26T07:40:54;75.90;;;26.20;;
3891;SDS011;1961;48.194;16.370;2022-12-26T07:43:21;73.53;;;27.10;;
3891;SDS011;1961;48.194;16.370;2022-12-26T07:45:47;73.55;;;27.02;;
3891;SDS011;1961;48.194;16.370;2022-12-26T07:48:13;76.80;;;28.02;;
3891;SDS011;1961;48.194;16.370;2022-12-26T07:50:41;72.55;;;26.08;;
3891;SDS011;1961;48.194;16.370;2022-12-26T07:53:12;76.05;;;26.50;;
3891;SDS011;1961;48.194;16.370;2022-12-26T07:55:38;76.53;;;26.98;;
3891;SDS011;1961;48.194;16.370;2022-12-26T07:58:04;72.85;;;25.95;;
3891;SDS011;1961;48.194;16.370;2022-12-26T08:00:30;73.55;;;27.23;;
3891;SDS011;1961;48.194;16.370;2022-12-26T08:02:56;74.05;;;25.00;;
3891;SDS011;1961;48.194;16.370;2022-12-26T08:05:23;65.50;;;24.40;;
3891;SDS011;1961;48.194;16.370;2022-12-26T08:07:49;67.13;;;24.05;;
3891;SDS011;1961;48.194;16.370;2022-12-26T08:10:16;68.90;;;23.58;;
3891;SDS011;1961;48.194;16.370;2022-12-26T08:12:42;74.63;;;25.85;;
3891;SDS011;1961;48.194;16.370;2022-12-26T08:15:10;68.70;;;25.17;;
3891;SDS011;1961;48.194;16.370;2022-12-26T08:17:37;66.30;;;24.15;;
3891;SDS011;1961;48.194;16.370;2022-12-26T08:20:04;71.35;;;25.08;;
3891;SDS011;1961;48.194;16.370;2022-12-26T08:22:30;69.15;;;25.08;;
3891;SDS011;1961;48.194;16.370;2022-12-26T08:24:56;71.85;;;24.85;;
3891;SDS011;1961;48.194;16.370;2022-12-26T08:27:22;68.60;;;24.52;;
3891;SDS011;1961;48.194;16.370;2022-12-26T08:29:49;67.57;;;24.17;;
3891;SDS011;1961;48.194;16.370;2022-12-26T08:32:15;76.72;;;27.08;;
3891;SDS011;1961;48.194;16.370;2022-12-26T08:34:41;78.05;;;27.52;;
3891;SDS011;1961;48.194;16.370;2022-12-26T08:37:07;78.80;;;26.88;;
3891;SDS011;1961;48.194;16.370;2022-12-26T08:39:33;73.60;;;25.50;;
3891;SDS011;1961;48.194;16.370;2022-12-26T08:41:59;77.25;;;27.40;;
3891;SDS011;1961;48.194;16.370;2022-12-26T08:44:26;77.13;;;26.48;;
3891;SDS011;1961;48.194;16.370;2022-12-26T08:46:52;76.65;;;27.77;;
3891;SDS011;1961;48.194;16.370;2022-12-26T08:49:18;76.65;;;27.58;;
3891;SDS011;1961;48.194;16.370;2022-12-26T08:51:44;76.05;;;27.27;;
3891;SDS011;1961;48.194;16.370;2022-12-26T08:54:10;75.90;;;28.58;;
3891;SDS011;1961;48.194;16.370;2022-12-26T08:56:37;73.63;;;27.02;;
3891;SDS011;1961;48.194;16.370;2022-12-26T08:59:03;74.15;;;27.30;;
3891;SDS011;1961;48.194;16.370;2022-12-26T09:01:30;76.07;;;26.80;;
3891;SDS011;1961;48.194;16.370;2022-12-26T09:04:02;74.72;;;26.75;;
3891;SDS011;1961;48.194;16.370;2022-12-26T09:06:30;73.72;;;28.08;;
3891;SDS011;1961;48.194;16.370;2022-12-26T09:08:57;75.05;;;27.52;;
3891;SDS011;1961;48.194;16.370;2022-12-26T09:11:24;76.50;;;26.00;;
3891;SDS011;1961;48.194;16.370;2022-12-26T09:13:51;69.57;;;25.77;;
3891;SDS011;1961;48.194;16.370;2022-12-26T09:16:18;71.43;;;25.15;;
3891;SDS011;1961;48.194;16.370;2022-12-26T09:18:45;79.55;;;27.63;;
3891;SDS011;1961;48.194;16.370;2022-12-26T09:21:12;70.15;;;24.35;;
3891;SDS011;1961;48.194;16.370;2022-12-26T09:23:39;71.30;;;24.58;;
3891;SDS011;1961;48.194;16.370;2022-12-26T09:26:06;73.53;;;26.35;;
3891;SDS011;1961;48.194;16.370;2022-12-26T09:28:33;69.47;;;25.08;;
3891;SDS011;1961;48.194;16.370;2022-12-26T09:31:00;80.10;;;27.83;;
3891;SDS011;1961;48.194;16.370;2022-12-26T09:33:27;72.07;;;26.77;;
3891;SDS011;1961;48.194;16.370;2022-12-26T09:35:54;72.82;;;25.63;;
3891;SDS011;1961;48.194;16.370;2022-12-26T09:38:21;75.55;;;27.58;;
3891;SDS011;1961;48.194;16.370;2022-12-26T09:46:00;76.95;;;25.75;;
3891;SDS011;1961;48.194;16.370;2022-12-26T09:49:14;76.45;;;26.40;;
3891;SDS011;1961;48.194;16.370;2022-12-26T09:51:21;76.65;;;27.02;;
3891;SDS011;1961;48.194;16.370;2022-12-26T09:53:47;72.35;;;25.50;;
3891;SDS011;1961;48.194;16.370;2022-12-26T09:56:14;72.30;;;27.33;;
3891;SDS011;1961;48.194;16.370;2022-12-26T10:01:20;73.70;;;27.63;;
3891;SDS011;1961;48.194;16.370;2022-12-26T10:03:48;74.82;;;26.05;;
3891;SDS011;1961;48.194;16.370;2022-12-26T10:06:18;72.95;;;27.10;;
3891;SDS011;1961;48.194;16.370;2022-12-26T10:08:59;73.22;;;26.58;;
3891;SDS011;1961;48.194;16.370;2022-12-26T10:14:11;78.72;;;28.38;;
3891;SDS011;1961;48.194;16.370;2022-12-26T10:21:45;78.13;;;28.40;;
3891;SDS011;1961;48.194;16.370;2022-12-26T10:26:41;80.30;;;29.58;;
3891;SDS011;1961;48.194;16.370;2022-12-26T10:31:36;82.00;;;30.08;;
3891;SDS011;1961;48.194;16.370;2022-12-26T10:34:07;77.82;;;28.70;;
3891;SDS011;1961;48.194;16.370;2022-12-26T10:36:43;80.88;;;29.75;;
3891;SDS011;1961;48.194;16.370;2022-12-26T10:39:17;81.53;;;29.10;;
3891;SDS011;1961;48.194;16.370;2022-12-26T10:41:48;78.55;;;28.90;;
3891;SDS011;1961;48.194;16.370;2022-12-26T10:44:15;83.22;;;28.17;;
3891;SDS011;1961;48.194;16.370;2022-12-26T10:49:15;82.13;;;30.20;;
3891;SDS011;1961;48.194;16.370;2022-12-26T10:51:43;75.43;;;27.58;;
3891;SDS011;1961;48.194;16.370;2022-12-26T10:54:13;77.97;;;29.15;;
3891;SDS011;1961;48.194;16.370;2022-12-26T10:56:42;78.47;;;28.85;;
3891;SDS011;1961;48.194;16.370;2022-12-26T10:59:12;90.32;;;31.40;;
3891;SDS011;1961;48.194;16.370;2022-12-26T11:01:39;81.53;;;30.58;;
3891;SDS011;1961;48.194;16.370;2022-12-26T11:04:24;82.78;;;29.70;;
3891;SDS011;1961;48.194;16.370;2022-12-26T11:06:51;79.82;;;29.75;;
3891;SDS011;1961;48.194;16.370;2022-12-26T11:09:31;85.25;;;28.05;;
3891;SDS011;1961;48.194;16.370;2022-12-26T11:12:00;76.20;;;29.90;;
3891;SDS011;1961;48.194;16.370;2022-12-26T11:16:53;78.38;;;30.27;;
3891;SDS011;1961;48.194;16.370;2022-12-26T11:19:30;72.95;;;28.48;;
3891;SDS011;1961;48.194;16.370;2022-12-26T11:22:42;72.80;;;28.13;;
3891;SDS011;1961;48.194;16.370;2022-12-26T11:24:43;76.38;;;28.88;;
3891;SDS011;1961;48.194;16.370;2022-12-26T11:27:16;79.60;;;28.85;;
3891;SDS011;1961;48.194;16.370;2022-12-26T11:29:43;80.85;;;31.08;;
3891;SDS011;1961;48.194;16.370;2022-12-26T11:32:12;78.78;;;30.23;;
3891;SDS011;1961;48.194;16.370;2022-12-26T11:34:42;75.32;;;29.35;;
3891;SDS011;1961;48.194;16.370;2022-12-26T11:37:45;75.35;;;28.75;;
3891;SDS011;1961;48.194;16.370;2022-12-26T11:40:04;73.30;;;29.80;;
3891;SDS011;1961;48.194;16.370;2022-12-26T11:42:31;80.25;;;30.15;;
3891;SDS011;1961;48.194;16.370;2022-12-26T11:44:57;75.93;;;29.10;;
3891;SDS011;1961;48.194;16.370;2022-12-26T11:47:25;80.88;;;31.17;;
3891;SDS011;1961;48.194;16.370;2022-12-26T11:55:22;78.85;;;30.92;;
3891;SDS011;1961;48.194;16.370;2022-12-26T12:00:30;88.22;;;32.20;;
3891;SDS011;1961;48.194;16.370;2022-12-26T12:02:57;79.63;;;31.55;;
3891;SDS011;1961;48.194;16.370;2022-12-26T12:05:39;80.25;;;29.50;;
3891;SDS011;1961;48.194;16.370;2022-12-26T12:08:22;78.40;;;29.88;;
3891;SDS011;1961;48.194;16.370;2022-12-26T12:21:42;70.32;;;25.65;;
3891;SDS011;1961;48.194;16.370;2022-12-26T12:24:52;74.20;;;27.17;;
3891;SDS011;1961;48.194;16.370;2022-12-26T12:39:31;73.07;;;29.10;;
3891;SDS011;1961;48.194;16.370;2022-12-26T12:42:19;73.75;;;28.77;;
3891;SDS011;1961;48.194;16.370;2022-12-26T12:50:04;72.45;;;27.05;;
3891;SDS011;1961;48.194;16.370;2022-12-26T12:52:38;72.05;;;28.35;;
3891;SDS011;1961;48.194;16.370;2022-12-26T12:55:21;70.97;;;27.55;;
3891;SDS011;1961;48.194;16.370;2022-12-26T12:57:52;71.30;;;27.65;;
3891;SDS011;1961;48.194;16.370;2022-12-26T13:00:22;74.93;;;28.98;;
3891;SDS011;1961;48.194;16.370;2022-12-26T13:02:58;73.68;;;27.20;;
3891;SDS011;1961;48.194;16.370;2022-12-26T13:07:55;70.43;;;27.05;;
3891;SDS011;1961;48.194;16.370;2022-12-26T13:10:26;67.13;;;26.10;;
3891;SDS011;1961;48.194;16.370;2022-12-26T13:12:53;67.35;;;27.00;;
3891;SDS011;1961;48.194;16.370;2022-12-26T13:15:30;64.10;;;25.00;;
3891;SDS011;1961;48.194;16.370;2022-12-26T13:20:28;63.00;;;23.90;;
3891;SDS011;1961;48.194;16.370;2022-12-26T13:22:57;68.25;;;27.13;;
3891;SDS011;1961;48.194;16.370;2022-12-26T13:25:46;66.25;;;25.80;;
3891;SDS011;1961;48.194;16.370;2022-12-26T13:28:21;63.92;;;24.15;;
3891;SDS011;1961;48.194;16.370;2022-12-26T13:30:52;76.07;;;28.45;;
3891;SDS011;1961;48.194;16.370;2022-12-26T13:33:19;64.97;;;24.67;;
3891;SDS011;1961;48.194;16.370;2022-12-26T13:38:21;64.20;;;25.73;;
3891;SDS011;1961;48.194;16.370;2022-12-26T13:40:58;65.20;;;24.83;;
3891;SDS011;1961;48.194;16.370;2022-12-26T13:44:04;64.32;;;24.77;;
3891;SDS011;1961;48.194;16.370;2022-12-26T13:46:33;65.55;;;25.27;;
3891;SDS011;1961;48.194;16.370;2022-12-26T13:49:00;63.67;;;25.90;;
3891;SDS011;1961;48.194;16.370;2022-12-26T13:51:59;67.00;;;26.25;;
3891;SDS011;1961;48.194;16.370;2022-12-26T13:54:19;67.32;;;27.13;;
3891;SDS011;1961;48.194;16.370;2022-12-26T13:56:55;64.32;;;25.60;;
3891;SDS011;1961;48.194;16.370;2022-12-26T13:59:26;67.45;;;26.52;;
3891;SDS011;1961;48.194;16.370;2022-12-26T14:02:00;65.80;;;26.25;;
3891;SDS011;1961;48.194;16.370;2022-12-26T14:04:40;63.88;;;26.95;;
3891;SDS011;1961;48.194;16.370;2022-12-26T14:09:59;65.50;;;26.10;;
3891;SDS011;1961;48.194;16.370;2022-12-26T14:12:43;68.72;;;27.13;;
3891;SDS011;1961;48.194;16.370;2022-12-26T14:15:23;65.65;;;27.58;;
3891;SDS011;1961;48.194;16.370;2022-12-26T14:20:39;65.50;;;25.35;;
3891;SDS011;1961;48.194;16.370;2022-12-26T14:28:26;69.35;;;27.63;;
3891;SDS011;1961;48.194;16.370;2022-12-26T14:33:54;72.18;;;27.10;;
3891;SDS011;1961;48.194;16.370;2022-12-26T14:41:17;69.03;;;27.48;;
3891;SDS011;1961;48.194;16.370;2022-12-26T14:46:56;70.53;;;27.95;;
3891;SDS011;1961;48.194;16.370;2022-12-26T14:51:49;69.60;;;29.35;;
3891;SDS011;1961;48.194;16.370;2022-12-26T14:56:49;66.53;;;26.92;;
3891;SDS011;1961;48.194;16.370;2022-12-26T14:59:31;70.25;;;26.33;;
3891;SDS011;1961;48.194;16.370;2022-12-26T15:02:43;66.43;;;26.30;;
3891;SDS011;1961;48.194;16.370;2022-12-26T15:34:41;74.57;;;29.40;;
3891;SDS011;1961;48.194;16.370;2022-12-26T15:36:54;68.05;;;26.90;;
3891;SDS011;1961;48.194;16.370;2022-12-26T15:42:14;69.07;;;27.23;;
3891;SDS011;1961;48.194;16.370;2022-12-26T15:44:53;70.63;;;26.75;;
3891;SDS011;1961;48.194;16.370;2022-12-26T15:47:42;68.15;;;27.42;;
3891;SDS011;1961;48.194;16.370;2022-12-26T15:50:23;67.43;;;26.35;;
3891;SDS011;1961;48.194;16.370;2022-12-26T15:52:56;72.70;;;28.20;;
3891;SDS011;1961;48.194;16.370;2022-12-26T16:00:49;70.82;;;27.65;;
3891;SDS011;1961;48.194;16.370;2022-12-26T16:03:21;75.97;;;29.15;;
3891;SDS011;1961;48.194;16.370;2022-12-26T16:05:53;73.28;;;27.80;;
3891;SDS011;1961;48.194;16.370;2022-12-26T16:13:34;70.47;;;27.45;;
3891;SDS011;1961;48.194;16.370;2022-12-26T16:16:00;70.05;;;27.65;;
3891;SDS011;1961;48.194;16.370;2022-12-26T16:18:28;77.68;;;28.33;;
3891;SDS011;1961;48.194;16.370;2022-12-26T16:20:56;73.35;;;28.13;;
3891;SDS011;1961;48.194;16.370;2022-12-26T16:23:42;76.13;;;29.27;;
3891;SDS011;1961;48.194;16.370;2022-12-26T16:26:22;71.00;;;28.30;;
3891;SDS011;1961;48.194;16.370;2022-12-26T16:28:50;70.38;;;27.65;;
3891;SDS011;1961;48.194;16.370;2022-12-26T16:31:17;74.15;;;27.75;;
3891;SDS011;1961;48.194;16.370;2022-12-26T16:33:44;80.38;;;28.05;;
3891;SDS011;1961;48.194;16.370;2022-12-26T16:36:15;72.30;;;29.73;;
3891;SDS011;1961;48.194;16.370;2022-12-26T16:38:43;76.22;;;29.92;;
3891;SDS011;1961;48.194;16.370;2022-12-26T16:41:23;76.70;;;33.17;;
3891;SDS011;1961;48.194;16.370;2022-12-26T16:43:51;71.38;;;28.58;;
3891;SDS011;1961;48.194;16.370;2022-12-26T16:46:18;68.55;;;28.23;;
3891;SDS011;1961;48.194;16.370;2022-12-26T16:48:50;74.30;;;29.02;;
3891;SDS011;1961;48.194;16.370;2022-12-26T16:51:39;70.18;;;30.13;;
3891;SDS011;1961;48.194;16.370;2022-12-26T16:54:25;78.43;;;30.25;;
3891;SDS011;1961;48.194;16.370;2022-12-26T16:56:59;73.35;;;30.30;;
3891;SDS011;1961;48.194;16.370;2022-12-26T16:59:27;77.68;;;30.15;;
3891;SDS011;1961;48.194;16.370;2022-12-26T17:01:57;71.80;;;27.73;;
3891;SDS011;1961;48.194;16.370;2022-12-26T17:04:27;71.38;;;30.20;;
3891;SDS011;1961;48.194;16.370;2022-12-26T17:09:20;69.47;;;28.85;;
3891;SDS011;1961;48.194;16.370;2022-12-26T17:14:19;73.07;;;28.30;;
3891;SDS011;1961;48.194;16.370;2022-12-26T17:16:46;67.13;;;26.23;;
3891;SDS011;1961;48.194;16.370;2022-12-26T17:19:19;67.93;;;28.08;;
3891;SDS011;1961;48.194;16.370;2022-12-26T17:24:29;71.45;;;27.52;;
3891;SDS011;1961;48.194;16.370;2022-12-26T17:29:45;66.90;;;26.15;;
3891;SDS011;1961;48.194;16.370;2022-12-26T17:32:33;69.47;;;25.60;;
3891;SDS011;1961;48.194;16.370;2022-12-26T17:34:59;69.65;;;26.88;;
3891;SDS011;1961;48.194;16.370;2022-12-26T17:37:25;71.72;;;27.75;;
3891;SDS011;1961;48.194;16.370;2022-12-26T17:40:03;69.95;;;27.80;;
3891;SDS011;1961;48.194;16.370;2022-12-26T17:42:36;74.65;;;29.30;;
3891;SDS011;1961;48.194;16.370;2022-12-26T17:45:03;75.78;;;30.38;;
3891;SDS011;1961;48.194;16.370;2022-12-26T17:47:29;75.20;;;30.58;;
3891;SDS011;1961;48.194;16.370;2022-12-26T17:49:56;72.90;;;29.02;;
3891;SDS011;1961;48.194;16.370;2022-12-26T17:52:25;71.75;;;29.83;;
3891;SDS011;1961;48.194;16.370;2022-12-26T17:54:52;76.30;;;31.35;;
3891;SDS011;1961;48.194;16.370;2022-12-26T17:57:20;76.05;;;29.17;;
3891;SDS011;1961;48.194;16.370;2022-12-26T17:59:47;75.32;;;29.38;;
3891;SDS011;1961;48.194;16.370;2022-12-26T18:02:14;76.68;;;30.40;;
3891;SDS011;1961;48.194;16.370;2022-12-26T18:04:40;71.53;;;28.00;;
3891;SDS011;1961;48.194;16.370;2022-12-26T18:07:08;73.65;;;29.98;;
3891;SDS011;1961;48.194;16.370;2022-12-26T18:09:35;74.35;;;30.85;;